Terminal Aerodrome Forecast
Issued by NWS Lake Charles, LA

Home | Current Version | Previous Version | Text Only | Print | Product List | Glossary On
Versions: 1 2 3 4 5 6 7 8 9 10 11 12 13 14 15 16
000
FTUS44 KLCH 290520
TAFLFT
TAF
KLFT 290520Z 2906/3006 06003KT P6SM SCT200
     FM290900 05003KT P6SM SCT005 SCT200
     FM291400 06008KT P6SM VCSH SCT015 BKN080
     FM291900 06010KT P6SM VCTS FEW015CB SCT025 BKN050 PROB30
      2919/2923 VRB12G20KT 2SM +TSRA BKN015CB OVC025
     FM300100 VRB03KT P6SM FEW060 BKN200=

USA.gov is the U.S. government's official web portal to all federal, state and local government web resources and services.